sensor_id;sensor_type;location;lat;lon;timestamp;pressure;altitude;pressure_sealevel;temperature;humidity
11985;BME280;6052;53.246;10.368;2023-09-07T00:02:17;101810.47;;;25.95;68.91
11985;BME280;6052;53.246;10.368;2023-09-07T00:05:00;101810.69;;;25.98;68.57
11985;BME280;6052;53.246;10.368;2023-09-07T00:07:30;101810.81;;;25.93;68.76
11985;BME280;6052;53.246;10.368;2023-09-07T00:10:03;101814.66;;;25.92;68.62
11985;BME280;6052;53.246;10.368;2023-09-07T00:12:33;101812.34;;;25.86;68.68
11985;BME280;6052;53.246;10.368;2023-09-07T00:15:07;101813.56;;;25.80;68.49
11985;BME280;6052;53.246;10.368;2023-09-07T00:17:37;101816.66;;;25.78;68.93
11985;BME280;6052;53.246;10.368;2023-09-07T00:20:07;101813.38;;;25.76;68.48
11985;BME280;6052;53.246;10.368;2023-09-07T00:22:40;101813.38;;;25.76;69.05
11985;BME280;6052;53.246;10.368;2023-09-07T00:25:13;101811.50;;;25.63;68.50
11985;BME280;6052;53.246;10.368;2023-09-07T00:27:42;101810.19;;;25.61;69.16
11985;BME280;6052;53.246;10.368;2023-09-07T00:30:12;101823.94;;;25.61;69.02
11985;BME280;6052;53.246;10.368;2023-09-07T00:32:41;101813.91;;;25.65;68.63
11985;BME280;6052;53.246;10.368;2023-09-07T00:35:11;101803.97;;;25.55;69.15
11985;BME280;6052;53.246;10.368;2023-09-07T00:37:40;101812.47;;;25.45;69.15
11985;BME280;6052;53.246;10.368;2023-09-07T00:40:12;101808.63;;;25.33;70.17
11985;BME280;6052;53.246;10.368;2023-09-07T00:42:42;101808.09;;;25.44;69.15
11985;BME280;6052;53.246;10.368;2023-09-07T00:45:11;101806.47;;;25.30;69.28
11985;BME280;6052;53.246;10.368;2023-09-07T00:47:41;101805.75;;;25.24;69.45
11985;BME280;6052;53.246;10.368;2023-09-07T00:50:11;101806.34;;;25.21;70.25
11985;BME280;6052;53.246;10.368;2023-09-07T00:52:43;101803.78;;;25.38;68.44
11985;BME280;6052;53.246;10.368;2023-09-07T00:55:16;101803.13;;;25.33;69.17
11985;BME280;6052;53.246;10.368;2023-09-07T00:57:46;101810.22;;;25.34;69.05
11985;BME280;6052;53.246;10.368;2023-09-07T01:00:16;101804.53;;;25.30;69.20
11985;BME280;6052;53.246;10.368;2023-09-07T01:02:45;101809.22;;;25.30;68.87
11985;BME280;6052;53.246;10.368;2023-09-07T01:05:15;101813.41;;;25.27;69.41
11985;BME280;6052;53.246;10.368;2023-09-07T01:07:47;101807.19;;;25.22;69.44
11985;BME280;6052;53.246;10.368;2023-09-07T01:10:23;101811.44;;;25.14;69.20
11985;BME280;6052;53.246;10.368;2023-09-07T01:12:52;101805.34;;;25.17;68.66
11985;BME280;6052;53.246;10.368;2023-09-07T01:15:21;101806.75;;;25.28;68.35
11985;BME280;6052;53.246;10.368;2023-09-07T01:17:51;101809.00;;;25.13;68.75
11985;BME280;6052;53.246;10.368;2023-09-07T01:20:28;101809.41;;;25.06;69.35
11985;BME280;6052;53.246;10.368;2023-09-07T01:23:02;101807.34;;;25.12;69.17
11985;BME280;6052;53.246;10.368;2023-09-07T01:25:32;101805.94;;;25.01;69.24
11985;BME280;6052;53.246;10.368;2023-09-07T01:28:03;101801.69;;;24.95;68.95
11985;BME280;6052;53.246;10.368;2023-09-07T01:30:35;101800.75;;;24.99;68.82
11985;BME280;6052;53.246;10.368;2023-09-07T01:33:05;101799.63;;;24.87;69.09
11985;BME280;6052;53.246;10.368;2023-09-07T01:35:36;101811.44;;;24.87;68.90
11985;BME280;6052;53.246;10.368;2023-09-07T01:38:08;101801.69;;;24.81;68.46
11985;BME280;6052;53.246;10.368;2023-09-07T01:40:38;101800.47;;;24.87;68.72
11985;BME280;6052;53.246;10.368;2023-09-07T01:43:07;101801.16;;;24.79;69.19
11985;BME280;6052;53.246;10.368;2023-09-07T01:45:36;101793.44;;;24.81;68.97
11985;BME280;6052;53.246;10.368;2023-09-07T01:48:19;101805.13;;;24.73;68.89
11985;BME280;6052;53.246;10.368;2023-09-07T01:50:52;101795.25;;;24.72;68.90
11985;BME280;6052;53.246;10.368;2023-09-07T01:53:24;101794.34;;;24.63;68.70
11985;BME280;6052;53.246;10.368;2023-09-07T01:55:53;101802.38;;;24.60;68.75
11985;BME280;6052;53.246;10.368;2023-09-07T01:58:26;101803.50;;;24.59;68.66
11985;BME280;6052;53.246;10.368;2023-09-07T02:00:57;101800.28;;;24.52;69.16
11985;BME280;6052;53.246;10.368;2023-09-07T02:03:29;101798.22;;;24.62;69.16
11985;BME280;6052;53.246;10.368;2023-09-07T02:05:58;101795.81;;;24.56;69.12
11985;BME280;6052;53.246;10.368;2023-09-07T02:08:30;101797.44;;;24.57;69.81
11985;BME280;6052;53.246;10.368;2023-09-07T02:11:00;101801.03;;;24.57;69.28
11985;BME280;6052;53.246;10.368;2023-09-07T02:16:05;101791.19;;;24.38;70.24
11985;BME280;6052;53.246;10.368;2023-09-07T02:18:35;101798.03;;;24.40;69.43
11985;BME280;6052;53.246;10.368;2023-09-07T02:21:06;101796.22;;;24.49;69.04
11985;BME280;6052;53.246;10.368;2023-09-07T02:23:38;101799.16;;;24.53;68.61
11985;BME280;6052;53.246;10.368;2023-09-07T02:26:07;101792.66;;;24.49;68.70
11985;BME280;6052;53.246;10.368;2023-09-07T02:28:37;101794.59;;;24.48;68.56
11985;BME280;6052;53.246;10.368;2023-09-07T02:31:06;101792.34;;;24.50;68.86
11985;BME280;6052;53.246;10.368;2023-09-07T02:33:36;101798.88;;;24.54;68.89
11985;BME280;6052;53.246;10.368;2023-09-07T02:36:06;101801.69;;;24.49;68.48
11985;BME280;6052;53.246;10.368;2023-09-07T02:38:37;101803.84;;;24.52;68.70
11985;BME280;6052;53.246;10.368;2023-09-07T02:41:08;101797.63;;;24.47;68.44
11985;BME280;6052;53.246;10.368;2023-09-07T02:43:37;101800.09;;;24.48;68.24
11985;BME280;6052;53.246;10.368;2023-09-07T02:46:06;101801.19;;;24.47;68.83
11985;BME280;6052;53.246;10.368;2023-09-07T02:48:36;101801.78;;;24.44;68.40
11985;BME280;6052;53.246;10.368;2023-09-07T02:51:05;101800.75;;;24.40;68.71
11985;BME280;6052;53.246;10.368;2023-09-07T02:53:37;101807.09;;;24.41;68.45
11985;BME280;6052;53.246;10.368;2023-09-07T02:56:07;101800.16;;;24.43;68.70
11985;BME280;6052;53.246;10.368;2023-09-07T02:58:37;101804.34;;;24.41;68.46
11985;BME280;6052;53.246;10.368;2023-09-07T03:01:07;101806.78;;;24.42;68.78
11985;BME280;6052;53.246;10.368;2023-09-07T03:03:38;101807.47;;;24.34;68.70
11985;BME280;6052;53.246;10.368;2023-09-07T03:06:08;101811.25;;;24.38;68.69
11985;BME280;6052;53.246;10.368;2023-09-07T03:08:41;101812.97;;;24.34;68.85
11985;BME280;6052;53.246;10.368;2023-09-07T03:11:10;101806.34;;;24.35;68.57
11985;BME280;6052;53.246;10.368;2023-09-07T03:13:41;101812.75;;;24.31;68.91
11985;BME280;6052;53.246;10.368;2023-09-07T03:16:11;101808.88;;;24.32;68.45
11985;BME280;6052;53.246;10.368;2023-09-07T03:18:40;101824.63;;;24.26;68.44
11985;BME280;6052;53.246;10.368;2023-09-07T03:21:10;101813.22;;;24.19;69.00
11985;BME280;6052;53.246;10.368;2023-09-07T03:23:42;101815.06;;;24.24;68.57
11985;BME280;6052;53.246;10.368;2023-09-07T03:26:13;101814.25;;;24.23;69.14
11985;BME280;6052;53.246;10.368;2023-09-07T03:28:42;101815.97;;;24.19;68.65
11985;BME280;6052;53.246;10.368;2023-09-07T03:31:12;101817.09;;;24.18;68.70
11985;BME280;6052;53.246;10.368;2023-09-07T03:33:42;101819.53;;;24.20;68.87
11985;BME280;6052;53.246;10.368;2023-09-07T03:36:11;101817.59;;;24.20;68.68
11985;BME280;6052;53.246;10.368;2023-09-07T03:38:44;101816.78;;;24.20;68.12
11985;BME280;6052;53.246;10.368;2023-09-07T03:41:14;101825.53;;;24.22;68.04
11985;BME280;6052;53.246;10.368;2023-09-07T03:43:43;101816.56;;;24.16;68.37
11985;BME280;6052;53.246;10.368;2023-09-07T03:46:13;101818.88;;;24.09;68.92
11985;BME280;6052;53.246;10.368;2023-09-07T03:48:42;101829.06;;;23.90;68.59
11985;BME280;6052;53.246;10.368;2023-09-07T03:51:11;101820.28;;;23.88;68.60
11985;BME280;6052;53.246;10.368;2023-09-07T03:53:41;101831.25;;;23.88;68.74
11985;BME280;6052;53.246;10.368;2023-09-07T03:56:13;101830.97;;;23.90;68.72
11985;BME280;6052;53.246;10.368;2023-09-07T03:58:42;101831.81;;;23.90;68.67
11985;BME280;6052;53.246;10.368;2023-09-07T04:01:13;101830.72;;;23.86;68.60
11985;BME280;6052;53.246;10.368;2023-09-07T04:03:43;101831.50;;;23.92;68.33
11985;BME280;6052;53.246;10.368;2023-09-07T04:06:13;101833.19;;;23.88;68.39
11985;BME280;6052;53.246;10.368;2023-09-07T04:08:42;101837.84;;;23.69;68.77
11985;BME280;6052;53.246;10.368;2023-09-07T04:11:14;101839.66;;;23.78;68.62
11985;BME280;6052;53.246;10.368;2023-09-07T04:13:43;101835.91;;;23.88;68.23
11985;BME280;6052;53.246;10.368;2023-09-07T04:16:13;101840.72;;;23.77;68.36
11985;BME280;6052;53.246;10.368;2023-09-07T04:18:42;101843.81;;;23.76;68.39
11985;BME280;6052;53.246;10.368;2023-09-07T04:21:12;101844.31;;;23.78;68.42
11985;BME280;6052;53.246;10.368;2023-09-07T04:23:41;101843.81;;;23.76;68.27
11985;BME280;6052;53.246;10.368;2023-09-07T04:26:13;101848.69;;;23.79;68.64
11985;BME280;6052;53.246;10.368;2023-09-07T04:28:43;101841.84;;;23.58;69.07
11985;BME280;6052;53.246;10.368;2023-09-07T04:31:12;101848.88;;;23.45;69.40
11985;BME280;6052;53.246;10.368;2023-09-07T04:33:42;101843.69;;;23.62;69.12
11985;BME280;6052;53.246;10.368;2023-09-07T04:36:13;101845.31;;;23.63;68.90
11985;BME280;6052;53.246;10.368;2023-09-07T04:38:42;101846.66;;;23.47;69.38
11985;BME280;6052;53.246;10.368;2023-09-07T04:41:14;101851.41;;;23.60;69.09
11985;BME280;6052;53.246;10.368;2023-09-07T04:43:44;101849.03;;;23.54;68.69
11985;BME280;6052;53.246;10.368;2023-09-07T04:46:14;101851.19;;;23.57;68.47
11985;BME280;6052;53.246;10.368;2023-09-07T04:48:46;101851.63;;;23.45;69.40
11985;BME280;6052;53.246;10.368;2023-09-07T04:51:16;101853.75;;;23.48;68.74
11985;BME280;6052;53.246;10.368;2023-09-07T04:53:47;101858.94;;;23.50;68.98
11985;BME280;6052;53.246;10.368;2023-09-07T04:56:22;101859.84;;;23.45;69.08
11985;BME280;6052;53.246;10.368;2023-09-07T04:58:52;101856.22;;;23.50;68.98
11985;BME280;6052;53.246;10.368;2023-09-07T05:01:22;101857.91;;;23.46;68.68
11985;BME280;6052;53.246;10.368;2023-09-07T05:03:51;101859.84;;;23.45;68.88
11985;BME280;6052;53.246;10.368;2023-09-07T05:06:21;101856.94;;;23.37;69.17
11985;BME280;6052;53.246;10.368;2023-09-07T05:08:53;101852.63;;;23.31;69.54
11985;BME280;6052;53.246;10.368;2023-09-07T05:11:25;101857.69;;;23.42;69.56
11985;BME280;6052;53.246;10.368;2023-09-07T05:13:54;101863.50;;;23.36;69.89
11985;BME280;6052;53.246;10.368;2023-09-07T05:16:23;101865.69;;;23.39;69.77
11985;BME280;6052;53.246;10.368;2023-09-07T05:18:53;101861.38;;;23.33;69.94
11985;BME280;6052;53.246;10.368;2023-09-07T05:21:22;101862.38;;;23.42;69.52
11985;BME280;6052;53.246;10.368;2023-09-07T05:23:52;101864.13;;;23.33;69.75
11985;BME280;6052;53.246;10.368;2023-09-07T05:26:24;101862.78;;;23.30;70.28
11985;BME280;6052;53.246;10.368;2023-09-07T05:28:54;101868.66;;;23.19;70.40
11985;BME280;6052;53.246;10.368;2023-09-07T05:31:24;101863.44;;;23.17;70.62
11985;BME280;6052;53.246;10.368;2023-09-07T05:33:53;101867.06;;;23.13;71.30
11985;BME280;6052;53.246;10.368;2023-09-07T05:36:23;101874.66;;;23.21;71.15
11985;BME280;6052;53.246;10.368;2023-09-07T05:38:53;101871.41;;;23.19;70.93
11985;BME280;6052;53.246;10.368;2023-09-07T05:41:25;101870.38;;;23.10;71.66
11985;BME280;6052;53.246;10.368;2023-09-07T05:43:55;101864.56;;;23.16;71.34
11985;BME280;6052;53.246;10.368;2023-09-07T05:46:24;101865.09;;;23.18;71.29
11985;BME280;6052;53.246;10.368;2023-09-07T05:48:54;101872.22;;;23.19;71.48
11985;BME280;6052;53.246;10.368;2023-09-07T05:51:23;101871.13;;;23.20;71.02
11985;BME280;6052;53.246;10.368;2023-09-07T05:53:53;101879.06;;;23.17;71.16
11985;BME280;6052;53.246;10.368;2023-09-07T05:56:25;101870.31;;;23.15;71.29
11985;BME280;6052;53.246;10.368;2023-09-07T05:58:56;101875.22;;;23.18;71.31
11985;BME280;6052;53.246;10.368;2023-09-07T06:01:26;101883.44;;;23.18;71.39
11985;BME280;6052;53.246;10.368;2023-09-07T06:03:55;101890.84;;;23.17;72.08
11985;BME280;6052;53.246;10.368;2023-09-07T06:06:25;101881.47;;;23.23;71.69
11985;BME280;6052;53.246;10.368;2023-09-07T06:08:54;101883.44;;;23.18;72.19
11985;BME280;6052;53.246;10.368;2023-09-07T06:11:27;101889.47;;;23.20;72.04
11985;BME280;6052;53.246;10.368;2023-09-07T06:13:58;101890.00;;;23.22;72.43
11985;BME280;6052;53.246;10.368;2023-09-07T06:16:29;101890.03;;;23.17;72.10
11985;BME280;6052;53.246;10.368;2023-09-07T06:18:58;101893.06;;;23.15;72.64
11985;BME280;6052;53.246;10.368;2023-09-07T06:21:28;101888.09;;;23.17;72.60
11985;BME280;6052;53.246;10.368;2023-09-07T06:23:58;101886.19;;;23.18;72.65
11985;BME280;6052;53.246;10.368;2023-09-07T06:26:30;101893.56;;;23.22;72.97
11985;BME280;6052;53.246;10.368;2023-09-07T06:28:59;101896.63;;;23.16;73.33
11985;BME280;6052;53.246;10.368;2023-09-07T06:31:28;101896.31;;;23.17;73.76
11985;BME280;6052;53.246;10.368;2023-09-07T06:33:58;101899.56;;;23.24;73.72
11985;BME280;6052;53.246;10.368;2023-09-07T06:36:29;101897.94;;;23.23;73.63
11985;BME280;6052;53.246;10.368;2023-09-07T06:39:11;101896.88;;;23.19;73.88
11985;BME280;6052;53.246;10.368;2023-09-07T06:41:45;101898.22;;;23.22;73.95
11985;BME280;6052;53.246;10.368;2023-09-07T06:44:15;101898.81;;;23.19;74.53
11985;BME280;6052;53.246;10.368;2023-09-07T06:46:44;101905.34;;;23.23;75.01
11985;BME280;6052;53.246;10.368;2023-09-07T06:49:16;101896.59;;;23.21;76.42
11985;BME280;6052;53.246;10.368;2023-09-07T06:51:45;101898.47;;;23.25;75.52
11985;BME280;6052;53.246;10.368;2023-09-07T06:54:15;101906.75;;;23.20;75.52
11985;BME280;6052;53.246;10.368;2023-09-07T06:56:47;101904.88;;;23.39;75.12
11985;BME280;6052;53.246;10.368;2023-09-07T06:59:17;101900.31;;;23.30;75.49
11985;BME280;6052;53.246;10.368;2023-09-07T07:01:46;101896.59;;;23.44;75.19
11985;BME280;6052;53.246;10.368;2023-09-07T07:04:16;101907.56;;;23.44;75.66
11985;BME280;6052;53.246;10.368;2023-09-07T07:06:45;101898.38;;;23.54;75.00
11985;BME280;6052;53.246;10.368;2023-09-07T07:09:14;101910.19;;;23.54;77.09
11985;BME280;6052;53.246;10.368;2023-09-07T07:11:44;101909.06;;;23.55;79.31
11985;BME280;6052;53.246;10.368;2023-09-07T07:14:16;101910.63;;;23.61;76.14
11985;BME280;6052;53.246;10.368;2023-09-07T07:16:45;101915.19;;;23.71;77.49
11985;BME280;6052;53.246;10.368;2023-09-07T07:19:15;101908.41;;;23.63;79.54
11985;BME280;6052;53.246;10.368;2023-09-07T07:21:44;101913.22;;;23.71;78.55
11985;BME280;6052;53.246;10.368;2023-09-07T07:24:13;101918.66;;;23.76;78.05
11985;BME280;6052;53.246;10.368;2023-09-07T07:26:44;101914.72;;;23.82;80.05
11985;BME280;6052;53.246;10.368;2023-09-07T07:29:16;101914.03;;;23.95;77.24
11985;BME280;6052;53.246;10.368;2023-09-07T07:31:46;101912.19;;;23.91;78.04
11985;BME280;6052;53.246;10.368;2023-09-07T07:34:16;101913.00;;;24.10;80.38
11985;BME280;6052;53.246;10.368;2023-09-07T07:36:45;101915.69;;;24.15;81.87
11985;BME280;6052;53.246;10.368;2023-09-07T07:39:15;101914.69;;;24.24;82.38
11985;BME280;6052;53.246;10.368;2023-09-07T07:41:45;101919.56;;;24.46;83.57
11985;BME280;6052;53.246;10.368;2023-09-07T07:44:17;101921.00;;;24.43;82.46
11985;BME280;6052;53.246;10.368;2023-09-07T07:46:46;101916.91;;;24.59;83.41
11985;BME280;6052;53.246;10.368;2023-09-07T07:49:16;101928.16;;;24.76;83.51
11985;BME280;6052;53.246;10.368;2023-09-07T07:51:45;101928.28;;;24.85;83.56
11985;BME280;6052;53.246;10.368;2023-09-07T07:54:15;101923.06;;;24.83;82.72
11985;BME280;6052;53.246;10.368;2023-09-07T07:56:44;101916.72;;;25.01;82.73
11985;BME280;6052;53.246;10.368;2023-09-07T07:59:14;101927.53;;;24.79;81.68
11985;BME280;6052;53.246;10.368;2023-09-07T08:01:45;101929.88;;;25.18;82.48
11985;BME280;6052;53.246;10.368;2023-09-07T08:04:15;101929.16;;;25.26;81.51
11985;BME280;6052;53.246;10.368;2023-09-07T08:06:44;101926.34;;;25.44;82.18
11985;BME280;6052;53.246;10.368;2023-09-07T08:09:14;101926.94;;;25.41;80.05
11985;BME280;6052;53.246;10.368;2023-09-07T08:11:43;101929.69;;;25.55;81.79
11985;BME280;6052;53.246;10.368;2023-09-07T08:14:13;101925.19;;;25.72;81.47
11985;BME280;6052;53.246;10.368;2023-09-07T08:16:42;101927.25;;;25.67;80.54
11985;BME280;6052;53.246;10.368;2023-09-07T08:19:14;101925.41;;;25.62;81.99
11985;BME280;6052;53.246;10.368;2023-09-07T08:21:43;101921.91;;;25.84;80.55
11985;BME280;6052;53.246;10.368;2023-09-07T08:24:13;101919.34;;;25.87;79.30
11985;BME280;6052;53.246;10.368;2023-09-07T08:26:43;101920.38;;;25.91;80.92
11985;BME280;6052;53.246;10.368;2023-09-07T08:29:14;101920.81;;;26.20;79.55
11985;BME280;6052;53.246;10.368;2023-09-07T08:31:43;101919.81;;;26.16;79.82
11985;BME280;6052;53.246;10.368;2023-09-07T08:34:17;101920.03;;;26.42;78.44
11985;BME280;6052;53.246;10.368;2023-09-07T08:36:48;101917.97;;;26.47;78.31
11985;BME280;6052;53.246;10.368;2023-09-07T08:39:20;101919.28;;;26.50;78.48
11985;BME280;6052;53.246;10.368;2023-09-07T08:41:49;101914.81;;;26.40;79.44
11985;BME280;6052;53.246;10.368;2023-09-07T08:44:28;101911.47;;;26.65;78.35
11985;BME280;6052;53.246;10.368;2023-09-07T08:46:59;101915.41;;;26.73;77.96
11985;BME280;6052;53.246;10.368;2023-09-07T08:49:33;101908.72;;;26.65;78.06
11985;BME280;6052;53.246;10.368;2023-09-07T08:52:04;101906.38;;;26.81;79.91
11985;BME280;6052;53.246;10.368;2023-09-07T08:54:34;101907.38;;;27.15;79.33
11985;BME280;6052;53.246;10.368;2023-09-07T08:57:05;101900.34;;;27.09;77.74
11985;BME280;6052;53.246;10.368;2023-09-07T08:59:35;101901.78;;;26.98;76.60
11985;BME280;6052;53.246;10.368;2023-09-07T09:02:08;101899.69;;;26.73;73.02
11985;BME280;6052;53.246;10.368;2023-09-07T09:04:41;101903.88;;;26.93;73.01
11985;BME280;6052;53.246;10.368;2023-09-07T09:07:10;101902.84;;;26.80;72.62
11985;BME280;6052;53.246;10.368;2023-09-07T09:09:39;101904.66;;;26.93;71.39
11985;BME280;6052;53.246;10.368;2023-09-07T09:12:09;101901.69;;;26.81;71.94
11985;BME280;6052;53.246;10.368;2023-09-07T09:14:41;101896.72;;;26.92;71.81
11985;BME280;6052;53.246;10.368;2023-09-07T09:17:12;101896.25;;;26.98;71.21
11985;BME280;6052;53.246;10.368;2023-09-07T09:19:44;101904.81;;;26.88;69.13
11985;BME280;6052;53.246;10.368;2023-09-07T09:22:14;101896.50;;;27.10;71.56
11985;BME280;6052;53.246;10.368;2023-09-07T09:24:43;101903.28;;;27.43;70.36
11985;BME280;6052;53.246;10.368;2023-09-07T09:27:12;101895.66;;;27.40;71.08
11985;BME280;6052;53.246;10.368;2023-09-07T09:29:42;101902.06;;;27.19;70.25
11985;BME280;6052;53.246;10.368;2023-09-07T09:32:14;101894.53;;;27.11;68.88
11985;BME280;6052;53.246;10.368;2023-09-07T09:34:46;101896.84;;;27.17;68.55
11985;BME280;6052;53.246;10.368;2023-09-07T09:37:16;101893.25;;;27.17;68.60
11985;BME280;6052;53.246;10.368;2023-09-07T09:39:49;101892.75;;;27.15;68.83
11985;BME280;6052;53.246;10.368;2023-09-07T09:42:20;101895.13;;;26.99;66.54
11985;BME280;6052;53.246;10.368;2023-09-07T09:44:50;101890.47;;;27.08;67.16
11985;BME280;6052;53.246;10.368;2023-09-07T09:47:22;101897.28;;;27.11;66.06
11985;BME280;6052;53.246;10.368;2023-09-07T09:49:54;101888.66;;;27.04;66.32
11985;BME280;6052;53.246;10.368;2023-09-07T09:52:26;101890.91;;;27.32;65.69
11985;BME280;6052;53.246;10.368;2023-09-07T09:54:56;101896.13;;;27.42;65.19
11985;BME280;6052;53.246;10.368;2023-09-07T09:57:26;101891.47;;;27.51;66.22
11985;BME280;6052;53.246;10.368;2023-09-07T09:59:58;101889.47;;;27.43;65.41
11985;BME280;6052;53.246;10.368;2023-09-07T10:02:35;101896.44;;;27.41;65.35
11985;BME280;6052;53.246;10.368;2023-09-07T10:05:08;101887.38;;;27.32;65.20
11985;BME280;6052;53.246;10.368;2023-09-07T10:07:42;101889.53;;;27.52;65.34
11985;BME280;6052;53.246;10.368;2023-09-07T10:10:12;101897.19;;;27.63;65.58
11985;BME280;6052;53.246;10.368;2023-09-07T10:12:43;101884.84;;;27.69;65.68
11985;BME280;6052;53.246;10.368;2023-09-07T10:15:22;101879.81;;;27.71;65.67
11985;BME280;6052;53.246;10.368;2023-09-07T10:18:05;101879.66;;;27.68;65.08
11985;BME280;6052;53.246;10.368;2023-09-07T10:20:50;101865.69;;;27.64;65.21
11985;BME280;6052;53.246;10.368;2023-09-07T10:23:21;101877.88;;;27.63;65.25
11985;BME280;6052;53.246;10.368;2023-09-07T10:25:52;101872.31;;;27.55;65.02
11985;BME280;6052;53.246;10.368;2023-09-07T10:28:23;101873.56;;;28.05;65.78
11985;BME280;6052;53.246;10.368;2023-09-07T10:30:59;101864.78;;;27.86;64.67
11985;BME280;6052;53.246;10.368;2023-09-07T10:33:31;101865.09;;;27.84;63.63
11985;BME280;6052;53.246;10.368;2023-09-07T10:36:05;101867.38;;;27.91;64.44
11985;BME280;6052;53.246;10.368;2023-09-07T10:38:35;101860.38;;;28.10;65.33
11985;BME280;6052;53.246;10.368;2023-09-07T10:41:05;101858.25;;;28.24;64.47
11985;BME280;6052;53.246;10.368;2023-09-07T10:43:46;101857.75;;;28.14;64.54
11985;BME280;6052;53.246;10.368;2023-09-07T10:46:18;101866.38;;;27.95;63.07
11985;BME280;6052;53.246;10.368;2023-09-07T10:48:49;101858.09;;;28.04;63.70
11985;BME280;6052;53.246;10.368;2023-09-07T10:51:22;101846.72;;;28.39;64.26
11985;BME280;6052;53.246;10.368;2023-09-07T10:53:52;101844.75;;;28.31;64.66
11985;BME280;6052;53.246;10.368;2023-09-07T10:56:24;101845.69;;;28.61;64.67
11985;BME280;6052;53.246;10.368;2023-09-07T10:58:54;101842.81;;;28.32;63.17
11985;BME280;6052;53.246;10.368;2023-09-07T11:01:24;101844.59;;;28.19;61.95
11985;BME280;6052;53.246;10.368;2023-09-07T11:03:54;101834.50;;;28.57;64.05
11985;BME280;6052;53.246;10.368;2023-09-07T11:06:29;101835.13;;;28.54;63.35
11985;BME280;6052;53.246;10.368;2023-09-07T11:08:59;101822.06;;;28.80;63.13
11985;BME280;6052;53.246;10.368;2023-09-07T11:11:31;101838.19;;;28.70;62.96
11985;BME280;6052;53.246;10.368;2023-09-07T11:14:01;101829.63;;;28.46;61.17
11985;BME280;6052;53.246;10.368;2023-09-07T11:16:33;101834.19;;;28.33;61.88
11985;BME280;6052;53.246;10.368;2023-09-07T11:19:04;101825.25;;;28.45;60.97
11985;BME280;6052;53.246;10.368;2023-09-07T11:21:37;101825.72;;;28.47;60.44
11985;BME280;6052;53.246;10.368;2023-09-07T11:24:08;101825.09;;;28.50;58.95
11985;BME280;6052;53.246;10.368;2023-09-07T11:26:41;101833.06;;;28.51;59.86
11985;BME280;6052;53.246;10.368;2023-09-07T11:29:13;101827.16;;;28.53;59.93
11985;BME280;6052;53.246;10.368;2023-09-07T11:31:43;101816.81;;;28.41;58.93
11985;BME280;6052;53.246;10.368;2023-09-07T11:34:14;101827.34;;;28.48;58.51
11985;BME280;6052;53.246;10.368;2023-09-07T11:36:46;101822.50;;;28.45;58.26
11985;BME280;6052;53.246;10.368;2023-09-07T11:39:15;101816.94;;;28.53;58.85
11985;BME280;6052;53.246;10.368;2023-09-07T11:41:46;101821.69;;;28.90;59.94
11985;BME280;6052;53.246;10.368;2023-09-07T11:44:16;101819.91;;;28.86;59.74
11985;BME280;6052;53.246;10.368;2023-09-07T11:46:45;101817.78;;;28.91;60.44
11985;BME280;6052;53.246;10.368;2023-09-07T11:49:14;101814.66;;;29.01;60.52
11985;BME280;6052;53.246;10.368;2023-09-07T11:51:49;101810.75;;;29.02;59.99
11985;BME280;6052;53.246;10.368;2023-09-07T11:54:19;101814.94;;;28.71;57.96
11985;BME280;6052;53.246;10.368;2023-09-07T11:56:49;101812.81;;;28.76;58.69
11985;BME280;6052;53.246;10.368;2023-09-07T11:59:19;101814.88;;;28.79;59.78
11985;BME280;6052;53.246;10.368;2023-09-07T12:01:48;101813.34;;;29.07;59.21
11985;BME280;6052;53.246;10.368;2023-09-07T12:04:18;101814.75;;;29.13;59.73
11985;BME280;6052;53.246;10.368;2023-09-07T12:06:50;101805.09;;;28.90;59.57
11985;BME280;6052;53.246;10.368;2023-09-07T12:09:19;101802.25;;;28.70;58.75
11985;BME280;6052;53.246;10.368;2023-09-07T12:11:49;101805.88;;;28.99;59.22
11985;BME280;6052;53.246;10.368;2023-09-07T12:14:19;101795.97;;;28.98;59.74
11985;BME280;6052;53.246;10.368;2023-09-07T12:16:49;101791.53;;;29.06;59.67
11985;BME280;6052;53.246;10.368;2023-09-07T12:19:18;101796.06;;;29.10;58.76
11985;BME280;6052;53.246;10.368;2023-09-07T12:21:51;101789.09;;;29.04;58.85
11985;BME280;6052;53.246;10.368;2023-09-07T12:24:20;101792.41;;;28.98;57.44
11985;BME280;6052;53.246;10.368;2023-09-07T12:26:50;101783.13;;;28.94;58.32
11985;BME280;6052;53.246;10.368;2023-09-07T12:29:20;101785.81;;;29.11;57.48
11985;BME280;6052;53.246;10.368;2023-09-07T12:31:50;101779.53;;;28.93;56.27
11985;BME280;6052;53.246;10.368;2023-09-07T12:34:19;101782.06;;;29.15;56.90
11985;BME280;6052;53.246;10.368;2023-09-07T12:36:51;101775.94;;;29.01;54.87
11985;BME280;6052;53.246;10.368;2023-09-07T12:39:21;101770.41;;;29.01;52.84
11985;BME280;6052;53.246;10.368;2023-09-07T12:41:50;101776.44;;;28.95;54.14
11985;BME280;6052;53.246;10.368;2023-09-07T12:44:19;101777.44;;;28.99;55.00
11985;BME280;6052;53.246;10.368;2023-09-07T12:46:49;101775.81;;;28.89;55.29
11985;BME280;6052;53.246;10.368;2023-09-07T12:49:19;101774.81;;;28.94;53.41
11985;BME280;6052;53.246;10.368;2023-09-07T12:51:51;101765.56;;;28.90;52.42
11985;BME280;6052;53.246;10.368;2023-09-07T12:54:21;101769.91;;;28.99;52.71
11985;BME280;6052;53.246;10.368;2023-09-07T12:56:50;101769.63;;;28.92;55.70
11985;BME280;6052;53.246;10.368;2023-09-07T12:59:19;101767.66;;;29.01;55.91
11985;BME280;6052;53.246;10.368;2023-09-07T13:01:49;101757.19;;;29.07;55.96
11985;BME280;6052;53.246;10.368;2023-09-07T13:04:22;101755.16;;;28.87;53.49
11985;BME280;6052;53.246;10.368;2023-09-07T13:06:54;101760.69;;;28.87;53.13
11985;BME280;6052;53.246;10.368;2023-09-07T13:09:23;101756.91;;;29.00;53.11
11985;BME280;6052;53.246;10.368;2023-09-07T13:11:52;101757.25;;;28.98;53.97